createdAt,value
2023-03-18T00:02:21.100Z,97785.69
2023-03-18T00:07:54.059Z,97785.69
2023-03-18T00:13:20.574Z,97782.63
2023-03-18T00:18:49.058Z,97778.78
2023-03-18T00:24:15.035Z,97779.13
2023-03-18T00:29:41.128Z,97790.56
2023-03-18T00:35:09.093Z,97796.97
2023-03-18T00:40:49.149Z,97798.31
2023-03-18T00:46:14.102Z,97796.16
2023-03-18T00:51:44.094Z,97809.28
2023-03-18T00:57:10.045Z,97805.09
2023-03-18T01:02:36.090Z,97802.91
2023-03-18T01:08:05.120Z,97799.03
2023-03-18T01:13:30.067Z,97791.81
2023-03-18T01:18:55.093Z,97782.75
2023-03-18T01:24:23.243Z,97787.13
2023-03-18T01:29:48.074Z,97790.16
2023-03-18T01:35:14.087Z,97804.63
2023-03-18T01:40:47.119Z,97806.97
2023-03-18T01:46:16.155Z,97795.88
2023-03-18T01:51:42.133Z,97807.28
2023-03-18T01:57:12.137Z,97796.53
2023-03-18T02:02:37.112Z,97798.91
2023-03-18T02:08:08.105Z,97812.03
2023-03-18T02:13:36.106Z,97804.97
2023-03-18T02:19:04.105Z,97808.00
2023-03-18T02:24:41.121Z,97812.19
2023-03-18T02:30:15.467Z,97818.75
2023-03-18T02:35:50.195Z,97814.38
2023-03-18T02:41:16.422Z,97821.94
2023-03-18T02:46:52.122Z,97825.13
2023-03-18T02:52:17.131Z,97831.03
2023-03-18T02:57:41.144Z,97839.25
2023-03-18T03:03:09.291Z,97847.47
2023-03-18T03:08:34.132Z,97853.53
2023-03-18T03:14:00.133Z,97856.72
2023-03-18T03:19:28.136Z,97854.69
2023-03-18T03:24:54.143Z,97868.13
2023-03-18T03:30:19.136Z,97871.63
2023-03-18T03:35:48.504Z,97877.34
2023-03-18T03:41:12.206Z,97875.31
2023-03-18T03:46:39.205Z,97875.81
2023-03-18T03:52:06.159Z,97876.47
2023-03-18T03:57:34.160Z,97887.84
2023-03-18T04:03:01.285Z,97896.59
2023-03-18T04:08:29.463Z,97894.53
2023-03-18T04:13:54.200Z,97897.22
2023-03-18T04:19:20.154Z,97899.06
2023-03-18T04:24:47.269Z,97898.38
2023-03-18T04:30:13.165Z,97904.75
2023-03-18T04:35:52.191Z,97900.22
2023-03-18T04:41:21.175Z,97904.59
2023-03-18T04:46:50.259Z,97905.75
2023-03-18T04:52:18.261Z,97905.59
2023-03-18T04:57:46.178Z,97910.97
2023-03-18T05:03:14.196Z,97899.38
2023-03-18T05:08:40.385Z,97895.84
2023-03-18T05:14:08.227Z,97899.38
2023-03-18T05:19:36.202Z,97900.06
2023-03-18T05:25:08.203Z,97895.84
2023-03-18T05:30:35.217Z,97886.78
2023-03-18T05:36:04.276Z,97896.19
2023-03-18T05:41:39.196Z,97898.19
2023-03-18T05:47:11.513Z,97892.66
2023-03-18T05:52:49.214Z,97894.47
2023-03-18T05:58:16.229Z,97903.84
2023-03-18T06:03:50.282Z,97910.16
2023-03-18T06:09:15.224Z,97895.41
2023-03-18T06:14:40.243Z,97898.75
2023-03-18T06:20:09.245Z,97898.75
2023-03-18T06:25:36.238Z,97905.81
2023-03-18T06:31:05.293Z,97893.94
2023-03-18T06:36:33.576Z,97907.72
2023-03-18T06:42:04.269Z,97898.03
2023-03-18T06:47:38.257Z,97908.63
2023-03-18T06:53:06.240Z,97917.78
2023-03-18T06:58:32.246Z,97913.28
2023-03-18T07:04:00.307Z,97927.59
2023-03-18T07:09:27.304Z,97941.22
2023-03-18T07:14:52.256Z,97933.34
2023-03-18T07:20:17.286Z,97939.25
2023-03-18T07:25:45.484Z,97941.94
2023-03-18T07:31:12.334Z,97953.88
2023-03-18T07:36:38.296Z,97958.41
2023-03-18T07:42:05.592Z,97968.97
2023-03-18T07:47:37.312Z,97967.81
2023-03-18T07:53:05.160Z,97958.22
2023-03-18T07:58:33.258Z,97973.34
2023-03-18T08:03:58.356Z,97966.94
2023-03-18T08:09:23.294Z,97987.81
2023-03-18T08:14:50.293Z,97994.53
2023-03-18T08:20:17.334Z,97997.34
2023-03-18T08:25:42.285Z,98010.47
2023-03-18T08:31:11.365Z,97997.81
2023-03-18T08:36:36.624Z,98002.16
2023-03-18T08:42:01.335Z,98003.44
2023-03-18T08:47:29.312Z,98002.75
2023-03-18T08:52:54.346Z,97995.63
2023-03-18T08:58:19.309Z,97986.53
2023-03-18T09:03:47.610Z,97985.31
2023-03-18T09:09:12.340Z,97992.53
2023-03-18T09:14:39.360Z,97989.44
2023-03-18T09:20:06.321Z,97983.53
2023-03-18T09:25:31.742Z,97989.34
2023-03-18T09:30:56.403Z,97991.47
2023-03-18T09:36:24.343Z,97998.97
2023-03-18T09:42:02.340Z,98000.09
2023-03-18T09:47:52.346Z,98001.69
2023-03-18T09:53:29.578Z,98009.00
2023-03-18T09:59:01.363Z,98015.63
2023-03-18T10:04:31.401Z,98003.91
2023-03-18T10:10:03.367Z,98010.50
2023-03-18T10:15:34.719Z,98013.31
2023-03-18T10:21:13.353Z,98005.38
2023-03-18T10:26:48.371Z,98015.88
2023-03-18T10:32:20.494Z,98019.38
2023-03-18T10:37:56.419Z,98016.59
2023-03-18T10:43:27.432Z,98013.47
2023-03-18T10:48:56.358Z,98013.41
2023-03-18T10:54:25.385Z,98015.84
2023-03-18T10:59:54.371Z,98016.69
2023-03-18T11:05:38.544Z,98012.13
2023-03-18T11:11:04.403Z,98009.91
2023-03-18T11:16:39.421Z,98004.97
2023-03-18T11:22:13.402Z,98001.09
2023-03-18T11:27:44.438Z,98001.72
2023-03-18T11:33:14.487Z,98000.69
2023-03-18T11:38:42.424Z,97997.81
2023-03-18T11:44:09.430Z,97989.63
2023-03-18T11:49:39.434Z,97989.44
2023-03-18T11:55:19.438Z,97986.88
2023-03-18T12:00:48.505Z,97982.72
2023-03-18T12:06:31.425Z,97980.63
2023-03-18T12:12:08.461Z,97986.44
2023-03-18T12:17:44.521Z,97982.03
2023-03-18T12:23:20.458Z,97977.00
2023-03-18T12:28:56.506Z,97978.69
2023-03-18T12:34:36.456Z,97979.13
2023-03-18T12:40:19.425Z,97971.81
2023-03-18T12:45:50.435Z,97965.78
2023-03-18T12:51:20.467Z,97962.66
2023-03-18T12:56:52.479Z,97962.22
2023-03-18T13:02:36.554Z,97951.88
2023-03-18T13:08:13.497Z,97964.44
2023-03-18T13:13:43.540Z,97952.25
2023-03-18T13:19:09.508Z,97945.09
2023-03-18T13:25:05.479Z,97940.03
2023-03-18T13:30:42.532Z,97935.84
2023-03-18T13:36:31.460Z,97938.72
2023-03-18T13:42:24.464Z,97935.91
2023-03-18T13:47:54.473Z,97935.19
2023-03-18T13:53:31.658Z,97933.19
2023-03-18T13:59:01.546Z,97927.63
2023-03-18T14:04:45.504Z,97926.13
2023-03-18T14:10:27.481Z,97923.22
2023-03-18T14:15:54.566Z,97929.34
2023-03-18T14:21:33.520Z,97927.78
2023-03-18T14:26:59.549Z,97928.47
2023-03-18T14:32:45.560Z,97921.00
2023-03-18T14:38:26.570Z,97914.72
2023-03-18T14:43:57.537Z,97917.88
2023-03-18T14:49:54.532Z,97923.34
2023-03-18T14:55:28.515Z,97913.88
2023-03-18T15:00:53.524Z,97912.78
2023-03-18T15:06:34.546Z,97908.41
2023-03-18T15:12:03.560Z,97921.88
2023-03-18T15:17:32.545Z,97919.81
2023-03-18T15:22:57.537Z,97916.53
2023-03-18T15:28:34.566Z,97916.09
2023-03-18T15:34:14.569Z,97906.34
2023-03-18T15:39:48.555Z,97905.28
2023-03-18T15:45:24.551Z,97907.91
2023-03-18T15:50:49.569Z,97908.88
2023-03-18T15:56:24.578Z,97900.22
2023-03-18T16:01:53.592Z,97904.59
2023-03-18T16:07:34.572Z,97907.03
2023-03-18T16:13:02.607Z,97910.94
2023-03-18T16:18:29.609Z,97911.28
2023-03-18T16:23:54.645Z,97923.72
2023-03-18T16:29:26.714Z,97923.44
2023-03-18T16:34:54.650Z,97927.66
2023-03-18T16:40:21.604Z,97937.97
2023-03-18T16:45:46.669Z,97935.69
2023-03-18T16:51:13.617Z,97937.41
2023-03-18T16:56:38.847Z,97930.00
2023-03-18T17:02:04.880Z,97935.84
2023-03-18T17:07:40.654Z,97939.31
2023-03-18T17:13:08.837Z,97927.75
2023-03-18T17:18:36.655Z,97928.47
2023-03-18T17:24:04.645Z,97941.03
2023-03-18T17:29:38.661Z,97944.63
2023-03-18T17:35:06.583Z,97956.19
2023-03-18T17:40:35.641Z,97960.78
2023-03-18T17:46:03.704Z,97974.06
2023-03-18T17:51:34.388Z,97973.38
2023-03-18T17:57:02.939Z,97970.00
2023-03-18T18:02:29.766Z,97972.41
2023-03-18T18:08:02.174Z,97970.47
2023-03-18T18:13:32.689Z,97962.91
2023-03-18T18:18:58.654Z,97962.81
2023-03-18T18:24:29.718Z,97959.78
2023-03-18T18:30:01.720Z,97958.00
2023-03-18T18:35:28.689Z,97956.91
2023-03-18T18:40:52.694Z,97956.59
2023-03-18T18:46:24.751Z,97953.19
2023-03-18T18:51:48.709Z,97955.75
2023-03-18T18:57:13.706Z,97956.00
2023-03-18T19:02:45.705Z,97967.25
2023-03-18T19:08:16.678Z,97966.66
2023-03-18T19:13:44.743Z,97964.25
2023-03-18T19:19:12.747Z,97969.03
2023-03-18T19:24:39.726Z,97968.59
2023-03-18T19:30:04.716Z,97980.13
2023-03-18T19:35:33.008Z,97980.63
2023-03-18T19:40:59.723Z,97982.84
2023-03-18T19:46:27.724Z,97985.06
2023-03-18T19:51:56.732Z,97984.16
2023-03-18T19:57:25.757Z,97986.09
2023-03-18T20:02:51.728Z,97980.78
2023-03-18T20:08:25.700Z,97991.22
2023-03-18T20:13:52.780Z,97995.00
2023-03-18T20:19:16.734Z,98000.88
2023-03-18T20:24:44.778Z,98004.47
2023-03-18T20:30:09.743Z,98003.19
2023-03-18T20:35:37.752Z,98001.31
2023-03-18T20:41:04.748Z,98008.56
2023-03-18T20:46:29.839Z,98010.09
2023-03-18T20:51:55.769Z,98022.59
2023-03-18T20:57:23.756Z,98023.13
2023-03-18T21:02:51.792Z,98029.94
2023-03-18T21:08:23.775Z,98041.41
2023-03-18T21:13:50.777Z,98050.06
2023-03-18T21:19:14.766Z,98044.53
2023-03-18T21:24:39.799Z,98040.34
2023-03-18T21:30:08.790Z,98033.44
2023-03-18T21:35:37.159Z,98046.63
2023-03-18T21:41:00.823Z,98050.03
2023-03-18T21:46:30.850Z,98052.44
2023-03-18T21:51:54.769Z,98045.06
2023-03-18T21:57:24.796Z,98042.03
2023-03-18T22:02:52.844Z,98034.63
2023-03-18T22:08:18.835Z,98039.06
2023-03-18T22:13:42.866Z,98046.00
2023-03-18T22:19:19.167Z,98044.16
2023-03-18T22:24:42.802Z,98037.81
2023-03-18T22:30:08.823Z,98051.31
2023-03-18T22:35:39.846Z,98038.53
2023-03-18T22:41:06.857Z,98036.03
2023-03-18T22:46:31.940Z,98030.00
2023-03-18T22:51:59.819Z,98041.13
2023-03-18T22:57:33.865Z,98039.97
2023-03-18T23:02:59.955Z,98041.34
2023-03-18T23:08:26.910Z,98047.75
2023-03-18T23:13:53.897Z,98040.00
2023-03-18T23:19:11.864Z,98037.81
2023-03-18T23:24:38.816Z,98034.81
2023-03-18T23:30:04.830Z,98038.31
2023-03-18T23:35:28.936Z,98036.09
2023-03-18T23:40:56.854Z,98035.94
2023-03-18T23:46:21.955Z,98029.41
2023-03-18T23:51:47.924Z,98030.59
2023-03-18T23:57:14.843Z,98031.09
